Terminal Aerodrome Forecast
Issued by NWS

Home | Current Version | Previous Version | Text Only | Print | Product List | Glossary On
Versions: 1 2 3 4 5 6 7 8 9 10 11 12 13 14 15 16 17 18 19 20 21 22 23 24
000
FTUS46 KLOX 170900 AAA
TAFLAX
TAF AMD
KLAX 170902Z 1709/1812 VRB03KT P6SM SCT120
     FM171300 VRB03KT 6SM BR SCT003
     FM171700 26007KT P6SM SCT100
     FM172000 27015KT P6SM SCT100
     FM180400 26007KT P6SM SKC
     FM180700 VRB03KT 5SM BR OVC010=

USA.gov is the U.S. government's official web portal to all federal, state and local government web resources and services.